sensor_id;sensor_type;location;lat;lon;timestamp;pressure;altitude;pressure_sealevel;temperature;humidity
35121;BME280;21297;52.008;4.576;2023-06-14T00:00:21;50196.72;;;-143.47;52.29
35121;BME280;21297;52.008;4.576;2023-06-14T00:03:07;50210.50;;;-143.47;52.14
35121;BME280;21297;52.008;4.576;2023-06-14T00:05:55;50224.28;;;-143.47;52.66
35121;BME280;21297;52.008;4.576;2023-06-14T00:08:41;50232.16;;;-143.47;52.65
35121;BME280;21297;52.008;4.576;2023-06-14T00:11:26;50218.38;;;-143.47;53.37
35121;BME280;21297;52.008;4.576;2023-06-14T00:14:12;50184.94;;;-143.47;53.72
35121;BME280;21297;52.008;4.576;2023-06-14T00:16:58;50181.00;;;-143.47;54.03
35121;BME280;21297;52.008;4.576;2023-06-14T00:19:43;50200.66;;;-143.47;54.48
35121;BME280;21297;52.008;4.576;2023-06-14T00:22:29;50222.31;;;-143.47;54.54
35121;BME280;21297;52.008;4.576;2023-06-14T00:25:16;50118.06;;;-143.47;55.46
35121;BME280;21297;52.008;4.576;2023-06-14T00:28:02;50151.50;;;-143.47;55.65
35121;BME280;21297;52.008;4.576;2023-06-14T00:30:47;50143.63;;;-143.47;56.28
35121;BME280;21297;52.008;4.576;2023-06-14T00:33:33;50125.91;;;-143.47;56.21
35121;BME280;21297;52.008;4.576;2023-06-14T00:36:19;50202.63;;;-143.47;56.40
35121;BME280;21297;52.008;4.576;2023-06-14T00:39:05;50232.16;;;-143.47;56.27
35121;BME280;21297;52.008;4.576;2023-06-14T00:41:54;50181.00;;;-143.47;57.40
35121;BME280;21297;52.008;4.576;2023-06-14T00:44:39;50141.66;;;-143.47;57.53
35121;BME280;21297;52.008;4.576;2023-06-14T00:47:25;50149.53;;;-143.47;57.37
35121;BME280;21297;52.008;4.576;2023-06-14T00:50:12;50102.31;;;-143.47;57.64
35121;BME280;21297;52.008;4.576;2023-06-14T00:52:59;50216.41;;;-143.47;55.97
35121;BME280;21297;52.008;4.576;2023-06-14T00:55:49;50181.00;;;-143.47;55.72
35121;BME280;21297;52.008;4.576;2023-06-14T00:58:35;50177.06;;;-143.47;55.60
35121;BME280;21297;52.008;4.576;2023-06-14T01:01:21;50206.56;;;-143.47;55.25
35121;BME280;21297;52.008;4.576;2023-06-14T01:04:07;50169.19;;;-143.47;54.83
35121;BME280;21297;52.008;4.576;2023-06-14T01:13:25;50059.03;;;-143.47;56.82
35121;BME280;21297;52.008;4.576;2023-06-14T01:16:13;50023.63;;;-143.47;57.27
35121;BME280;21297;52.008;4.576;2023-06-14T01:18:59;50055.09;;;-143.47;56.14
35121;BME280;21297;52.008;4.576;2023-06-14T01:21:45;50110.19;;;-143.47;55.34
35121;BME280;21297;52.008;4.576;2023-06-14T01:24:30;50025.59;;;-143.47;56.31
35121;BME280;21297;52.008;4.576;2023-06-14T01:27:18;50047.25;;;-143.47;55.79
35121;BME280;21297;52.008;4.576;2023-06-14T01:30:05;49988.22;;;-143.47;56.96
35121;BME280;21297;52.008;4.576;2023-06-14T01:32:52;50011.84;;;-143.47;57.46
35121;BME280;21297;52.008;4.576;2023-06-14T01:35:39;49990.19;;;-143.47;57.17
35121;BME280;21297;52.008;4.576;2023-06-14T01:38:26;49919.38;;;-143.47;57.28
35121;BME280;21297;52.008;4.576;2023-06-14T01:41:13;50013.81;;;-143.47;56.37
35121;BME280;21297;52.008;4.576;2023-06-14T01:44:01;49996.09;;;-143.47;56.20
35121;BME280;21297;52.008;4.576;2023-06-14T01:46:48;49988.22;;;-143.47;56.25
35121;BME280;21297;52.008;4.576;2023-06-14T01:49:34;49966.59;;;-143.47;56.05
35121;BME280;21297;52.008;4.576;2023-06-14T01:52:20;49982.34;;;-143.47;56.29
35121;BME280;21297;52.008;4.576;2023-06-14T01:55:08;49988.22;;;-143.47;56.15
35121;BME280;21297;52.008;4.576;2023-06-14T01:57:54;49927.25;;;-143.47;56.59
35121;BME280;21297;52.008;4.576;2023-06-14T02:00:40;49952.81;;;-143.47;56.27
35121;BME280;21297;52.008;4.576;2023-06-14T02:03:26;49929.22;;;-143.47;57.31
35121;BME280;21297;52.008;4.576;2023-06-14T02:06:11;49848.59;;;-143.47;59.19
35121;BME280;21297;52.008;4.576;2023-06-14T02:09:00;49793.50;;;-143.47;59.78
35121;BME280;21297;52.008;4.576;2023-06-14T02:11:46;49744.34;;;-143.47;60.85
35121;BME280;21297;52.008;4.576;2023-06-14T02:14:32;49781.72;;;-143.47;61.67
35121;BME280;21297;52.008;4.576;2023-06-14T02:17:19;49691.25;;;-143.47;64.94
35121;BME280;21297;52.008;4.576;2023-06-14T02:20:05;49710.91;;;-143.47;65.60
35121;BME280;21297;52.008;4.576;2023-06-14T02:22:51;49646.00;;;-143.47;68.91
35121;BME280;21297;52.008;4.576;2023-06-14T02:25:36;49592.91;;;-143.47;71.00
35121;BME280;21297;52.008;4.576;2023-06-14T02:28:22;49547.66;;;-143.47;73.13
35121;BME280;21297;52.008;4.576;2023-06-14T02:31:08;49529.97;;;-143.47;74.61
35121;BME280;21297;52.008;4.576;2023-06-14T02:33:54;49533.91;;;-143.47;74.52
35121;BME280;21297;52.008;4.576;2023-06-14T02:36:39;49508.31;;;-143.47;75.34
35121;BME280;21297;52.008;4.576;2023-06-14T02:39:27;49478.81;;;-143.47;75.99
35121;BME280;21297;52.008;4.576;2023-06-14T02:42:12;49476.88;;;-143.47;77.50
35121;BME280;21297;52.008;4.576;2023-06-14T02:44:58;49429.66;;;-143.47;77.92
35121;BME280;21297;52.008;4.576;2023-06-14T02:47:44;49425.72;;;-143.47;77.75
35121;BME280;21297;52.008;4.576;2023-06-14T02:50:31;49374.59;;;-143.47;78.83
35121;BME280;21297;52.008;4.576;2023-06-14T02:53:17;49390.31;;;-143.47;80.75
35121;BME280;21297;52.008;4.576;2023-06-14T02:56:03;49413.94;;;-143.47;80.58
35121;BME280;21297;52.008;4.576;2023-06-14T02:58:49;49388.38;;;-143.47;79.76
35121;BME280;21297;52.008;4.576;2023-06-14T03:01:36;49404.09;;;-143.47;79.60
35121;BME280;21297;52.008;4.576;2023-06-14T03:04:26;49402.13;;;-143.47;78.88
35121;BME280;21297;52.008;4.576;2023-06-14T03:07:12;49411.97;;;-143.47;78.66
35121;BME280;21297;52.008;4.576;2023-06-14T03:09:58;49406.06;;;-143.47;78.78
35121;BME280;21297;52.008;4.576;2023-06-14T03:12:44;49425.72;;;-143.47;78.67
35121;BME280;21297;52.008;4.576;2023-06-14T03:15:30;49398.19;;;-143.47;77.76
35121;BME280;21297;52.008;4.576;2023-06-14T03:18:17;49445.41;;;-143.47;77.11
35121;BME280;21297;52.008;4.576;2023-06-14T03:21:03;49465.06;;;-143.47;75.24
35121;BME280;21297;52.008;4.576;2023-06-14T03:23:48;49449.31;;;-143.47;74.73
35121;BME280;21297;52.008;4.576;2023-06-14T03:26:34;49476.88;;;-143.47;73.49
35121;BME280;21297;52.008;4.576;2023-06-14T03:29:22;49474.91;;;-143.47;73.65
35121;BME280;21297;52.008;4.576;2023-06-14T03:32:08;49508.31;;;-143.47;73.39
35121;BME280;21297;52.008;4.576;2023-06-14T03:34:54;49533.91;;;-143.47;73.69
35121;BME280;21297;52.008;4.576;2023-06-14T03:37:41;49516.19;;;-143.47;73.39
35121;BME280;21297;52.008;4.576;2023-06-14T03:40:26;49516.19;;;-143.47;72.91
35121;BME280;21297;52.008;4.576;2023-06-14T03:43:13;49522.09;;;-143.47;73.09
35121;BME280;21297;52.008;4.576;2023-06-14T03:45:58;49524.06;;;-143.47;72.91
35121;BME280;21297;52.008;4.576;2023-06-14T03:48:44;49498.50;;;-143.47;73.07
35121;BME280;21297;52.008;4.576;2023-06-14T03:51:30;49516.19;;;-143.47;73.32
35121;BME280;21297;52.008;4.576;2023-06-14T03:54:16;49502.44;;;-143.47;73.46
35121;BME280;21297;52.008;4.576;2023-06-14T03:57:02;49533.91;;;-143.47;74.03
35121;BME280;21297;52.008;4.576;2023-06-14T03:59:48;49500.47;;;-143.47;74.24
35121;BME280;21297;52.008;4.576;2023-06-14T04:02:33;49496.53;;;-143.47;74.15
35121;BME280;21297;52.008;4.576;2023-06-14T04:05:19;49516.19;;;-143.47;72.55
35121;BME280;21297;52.008;4.576;2023-06-14T04:08:05;49545.69;;;-143.47;69.50
35121;BME280;21297;52.008;4.576;2023-06-14T04:10:54;49630.25;;;-143.47;67.18
35121;BME280;21297;52.008;4.576;2023-06-14T04:13:40;49699.09;;;-143.47;64.59
35121;BME280;21297;52.008;4.576;2023-06-14T04:16:26;49736.47;;;-143.47;62.23
35121;BME280;21297;52.008;4.576;2023-06-14T04:19:11;49742.38;;;-143.47;60.82
35121;BME280;21297;52.008;4.576;2023-06-14T04:21:58;49756.13;;;-143.47;59.56
35121;BME280;21297;52.008;4.576;2023-06-14T04:24:46;49775.81;;;-143.47;59.22
35121;BME280;21297;52.008;4.576;2023-06-14T04:27:32;49771.88;;;-143.47;58.96
35121;BME280;21297;52.008;4.576;2023-06-14T04:30:12;49819.09;;;-143.47;58.95
35121;BME280;21297;52.008;4.576;2023-06-14T04:32:38;49819.09;;;-143.47;57.54
35121;BME280;21297;52.008;4.576;2023-06-14T04:35:07;49876.13;;;-143.47;57.46
35121;BME280;21297;52.008;4.576;2023-06-14T04:37:33;49844.66;;;-143.47;57.78
35121;BME280;21297;52.008;4.576;2023-06-14T04:39:58;49836.78;;;-143.47;57.50
35121;BME280;21297;52.008;4.576;2023-06-14T04:42:24;49848.59;;;-143.47;57.41
35121;BME280;21297;52.008;4.576;2023-06-14T04:44:56;49860.38;;;-143.47;57.05
35121;BME280;21297;52.008;4.576;2023-06-14T04:47:21;49891.84;;;-143.47;56.23
35121;BME280;21297;52.008;4.576;2023-06-14T04:50:06;49880.06;;;-143.47;56.02
35121;BME280;21297;52.008;4.576;2023-06-14T04:52:52;49911.53;;;-143.47;55.08
35121;BME280;21297;52.008;4.576;2023-06-14T04:55:38;49968.56;;;-143.47;54.90
35121;BME280;21297;52.008;4.576;2023-06-14T04:58:24;49927.25;;;-143.47;55.02
35121;BME280;21297;52.008;4.576;2023-06-14T05:01:10;49950.88;;;-143.47;54.52
35121;BME280;21297;52.008;4.576;2023-06-14T05:03:55;49966.59;;;-143.47;54.25
35121;BME280;21297;52.008;4.576;2023-06-14T05:06:45;50019.72;;;-143.47;53.86
35121;BME280;21297;52.008;4.576;2023-06-14T05:09:30;50033.47;;;-143.47;52.86
35121;BME280;21297;52.008;4.576;2023-06-14T05:12:16;50019.72;;;-143.47;53.56
35121;BME280;21297;52.008;4.576;2023-06-14T05:15:04;50021.66;;;-143.47;52.77
35121;BME280;21297;52.008;4.576;2023-06-14T05:17:50;50033.47;;;-143.47;53.46
35121;BME280;21297;52.008;4.576;2023-06-14T05:20:40;50031.50;;;-143.47;52.86
35121;BME280;21297;52.008;4.576;2023-06-14T05:23:32;50082.66;;;-143.47;53.03
35121;BME280;21297;52.008;4.576;2023-06-14T05:26:18;50094.44;;;-143.47;52.86
35121;BME280;21297;52.008;4.576;2023-06-14T05:29:04;50086.59;;;-143.47;52.04
35121;BME280;21297;52.008;4.576;2023-06-14T05:31:50;50120.03;;;-143.47;52.18
35121;BME280;21297;52.008;4.576;2023-06-14T05:34:36;50131.81;;;-143.47;51.66
35121;BME280;21297;52.008;4.576;2023-06-14T05:37:21;50161.31;;;-143.47;52.10
35121;BME280;21297;52.008;4.576;2023-06-14T05:40:07;50127.88;;;-143.47;52.09
35121;BME280;21297;52.008;4.576;2023-06-14T05:42:54;50173.13;;;-143.47;51.15
35121;BME280;21297;52.008;4.576;2023-06-14T05:45:40;50135.75;;;-143.47;51.20
35121;BME280;21297;52.008;4.576;2023-06-14T05:48:26;50169.19;;;-143.47;51.64
35121;BME280;21297;52.008;4.576;2023-06-14T05:51:11;50210.50;;;-143.47;50.47
35121;BME280;21297;52.008;4.576;2023-06-14T05:53:57;50204.59;;;-143.47;50.97
35121;BME280;21297;52.008;4.576;2023-06-14T05:56:43;50198.69;;;-143.47;51.06
35121;BME280;21297;52.008;4.576;2023-06-14T05:59:29;50212.47;;;-143.47;50.85
35121;BME280;21297;52.008;4.576;2023-06-14T06:02:15;50236.06;;;-143.47;50.54
35121;BME280;21297;52.008;4.576;2023-06-14T06:05:01;50279.34;;;-143.47;50.33
35121;BME280;21297;52.008;4.576;2023-06-14T06:07:47;50247.88;;;-143.47;49.46
35121;BME280;21297;52.008;4.576;2023-06-14T06:10:33;50277.38;;;-143.47;49.88
35121;BME280;21297;52.008;4.576;2023-06-14T06:13:19;50334.44;;;-143.47;48.91
35121;BME280;21297;52.008;4.576;2023-06-14T06:16:05;50350.16;;;-143.47;49.27
35121;BME280;21297;52.008;4.576;2023-06-14T06:18:52;50361.97;;;-143.47;49.21
35121;BME280;21297;52.008;4.576;2023-06-14T06:21:37;50393.44;;;-143.47;48.72
35121;BME280;21297;52.008;4.576;2023-06-14T06:24:23;50440.66;;;-143.47;48.13
35121;BME280;21297;52.008;4.576;2023-06-14T06:27:09;50365.91;;;-143.47;48.88
35121;BME280;21297;52.008;4.576;2023-06-14T06:29:55;50428.84;;;-143.47;48.15
35121;BME280;21297;52.008;4.576;2023-06-14T06:32:41;50436.72;;;-143.47;47.82
35121;BME280;21297;52.008;4.576;2023-06-14T06:35:27;50454.44;;;-143.47;48.46
35121;BME280;21297;52.008;4.576;2023-06-14T06:38:13;50452.47;;;-143.47;48.22
35121;BME280;21297;52.008;4.576;2023-06-14T06:40:59;50525.25;;;-143.47;47.64
35121;BME280;21297;52.008;4.576;2023-06-14T06:43:45;50483.94;;;-143.47;47.91
35121;BME280;21297;52.008;4.576;2023-06-14T06:46:32;50542.94;;;-143.47;47.74
35121;BME280;21297;52.008;4.576;2023-06-14T06:49:20;50653.13;;;-143.47;46.11
35121;BME280;21297;52.008;4.576;2023-06-14T06:52:07;50560.66;;;-143.47;45.40
35121;BME280;21297;52.008;4.576;2023-06-14T06:54:54;50662.94;;;-143.47;46.01
35121;BME280;21297;52.008;4.576;2023-06-14T06:57:42;50680.66;;;-143.47;45.37
35121;BME280;21297;52.008;4.576;2023-06-14T07:00:27;50674.75;;;-143.47;44.73
35121;BME280;21297;52.008;4.576;2023-06-14T07:03:14;50727.88;;;-143.47;44.01
35121;BME280;21297;52.008;4.576;2023-06-14T07:06:00;50692.47;;;-143.47;44.49
35121;BME280;21297;52.008;4.576;2023-06-14T07:08:48;50753.44;;;-143.47;44.85
35121;BME280;21297;52.008;4.576;2023-06-14T07:11:34;50834.09;;;-143.47;43.79
35121;BME280;21297;52.008;4.576;2023-06-14T07:14:20;50771.16;;;-143.47;44.64
35121;BME280;21297;52.008;4.576;2023-06-14T07:17:08;50816.41;;;-143.47;43.48
35121;BME280;21297;52.008;4.576;2023-06-14T07:19:56;50893.13;;;-143.47;44.05
35121;BME280;21297;52.008;4.576;2023-06-14T07:22:43;50908.88;;;-143.47;42.74
35121;BME280;21297;52.008;4.576;2023-06-14T07:25:34;50810.50;;;-143.47;42.89
35121;BME280;21297;52.008;4.576;2023-06-14T07:28:21;50904.94;;;-143.47;42.52
35121;BME280;21297;52.008;4.576;2023-06-14T07:31:07;51013.16;;;-143.47;43.45
35121;BME280;21297;52.008;4.576;2023-06-14T07:33:54;51070.19;;;-143.47;42.25
35121;BME280;21297;52.008;4.576;2023-06-14T07:36:40;51072.16;;;-143.47;41.54
35121;BME280;21297;52.008;4.576;2023-06-14T07:39:27;51062.34;;;-143.47;40.80
35121;BME280;21297;52.008;4.576;2023-06-14T07:42:14;51156.78;;;-143.47;41.09
35121;BME280;21297;52.008;4.576;2023-06-14T07:45:00;51146.94;;;-143.47;40.75
35121;BME280;21297;52.008;4.576;2023-06-14T07:47:46;51270.88;;;-143.47;40.72
35121;BME280;21297;52.008;4.576;2023-06-14T07:50:32;51261.06;;;-143.47;40.65
35121;BME280;21297;52.008;4.576;2023-06-14T07:53:18;51288.59;;;-143.47;40.83
35121;BME280;21297;52.008;4.576;2023-06-14T07:56:03;51247.28;;;-143.47;40.31
35121;BME280;21297;52.008;4.576;2023-06-14T07:58:49;51249.25;;;-143.47;39.55
35121;BME280;21297;52.008;4.576;2023-06-14T08:01:35;51329.91;;;-143.47;40.08
35121;BME280;21297;52.008;4.576;2023-06-14T08:04:21;51302.38;;;-143.47;40.00
35121;BME280;21297;52.008;4.576;2023-06-14T08:07:07;51207.94;;;-143.47;39.80
35121;BME280;21297;52.008;4.576;2023-06-14T08:09:53;51270.88;;;-143.47;40.37
35121;BME280;21297;52.008;4.576;2023-06-14T08:12:38;51416.50;;;-143.47;39.49
35121;BME280;21297;52.008;4.576;2023-06-14T08:15:24;51444.03;;;-143.47;39.13
35121;BME280;21297;52.008;4.576;2023-06-14T08:18:10;51371.25;;;-143.47;39.27
35121;BME280;21297;52.008;4.576;2023-06-14T08:20:56;51371.25;;;-143.47;39.36
35121;BME280;21297;52.008;4.576;2023-06-14T08:23:43;51375.16;;;-143.47;39.47
35121;BME280;21297;52.008;4.576;2023-06-14T08:26:29;51369.28;;;-143.47;39.01
35121;BME280;21297;52.008;4.576;2023-06-14T08:29:15;51398.78;;;-143.47;39.53
35121;BME280;21297;52.008;4.576;2023-06-14T08:32:01;51414.53;;;-143.47;38.69
35121;BME280;21297;52.008;4.576;2023-06-14T08:34:47;51495.19;;;-143.47;39.54
35121;BME280;21297;52.008;4.576;2023-06-14T08:37:33;51630.97;;;-143.47;39.86
35121;BME280;21297;52.008;4.576;2023-06-14T08:40:22;51776.59;;;-143.47;38.30
35121;BME280;21297;52.008;4.576;2023-06-14T08:43:11;51774.63;;;-143.47;38.12
35121;BME280;21297;52.008;4.576;2023-06-14T08:46:02;51904.50;;;-143.47;36.81
35121;BME280;21297;52.008;4.576;2023-06-14T08:48:49;51808.06;;;-143.47;36.95
35121;BME280;21297;52.008;4.576;2023-06-14T08:51:38;51888.75;;;-143.47;37.18
35121;BME280;21297;52.008;4.576;2023-06-14T08:54:29;51943.84;;;-143.47;37.05
35121;BME280;21297;52.008;4.576;2023-06-14T08:57:21;52002.91;;;-143.47;36.75
35121;BME280;21297;52.008;4.576;2023-06-14T09:00:07;52050.13;;;-143.47;36.64
35121;BME280;21297;52.008;4.576;2023-06-14T09:03:02;51983.22;;;-143.47;36.30
35121;BME280;21297;52.008;4.576;2023-06-14T09:05:48;51977.31;;;-143.47;36.68
35121;BME280;21297;52.008;4.576;2023-06-14T09:08:35;52020.59;;;-143.47;36.63
35121;BME280;21297;52.008;4.576;2023-06-14T09:11:21;52050.13;;;-143.47;36.74
35121;BME280;21297;52.008;4.576;2023-06-14T09:14:07;51997.00;;;-143.47;35.90
35121;BME280;21297;52.008;4.576;2023-06-14T09:16:53;52065.88;;;-143.47;35.69
35121;BME280;21297;52.008;4.576;2023-06-14T09:19:39;52144.59;;;-143.47;35.08
35121;BME280;21297;52.008;4.576;2023-06-14T09:22:29;52130.81;;;-143.47;35.31
35121;BME280;21297;52.008;4.576;2023-06-14T09:25:16;52158.38;;;-143.47;35.25
35121;BME280;21297;52.008;4.576;2023-06-14T09:28:02;52136.72;;;-143.47;36.61
35121;BME280;21297;52.008;4.576;2023-06-14T09:30:47;52187.88;;;-143.47;34.91
35121;BME280;21297;52.008;4.576;2023-06-14T09:33:36;52250.88;;;-143.47;35.30
35121;BME280;21297;52.008;4.576;2023-06-14T09:36:25;52294.16;;;-143.47;35.16
35121;BME280;21297;52.008;4.576;2023-06-14T09:39:18;52294.16;;;-143.47;34.47
35121;BME280;21297;52.008;4.576;2023-06-14T09:42:16;52209.53;;;-143.47;34.71
35121;BME280;21297;52.008;4.576;2023-06-14T09:45:06;52305.97;;;-143.47;35.11
35121;BME280;21297;52.008;4.576;2023-06-14T09:47:53;52309.91;;;-143.47;34.84
35121;BME280;21297;52.008;4.576;2023-06-14T09:50:39;52349.28;;;-143.47;33.92
35121;BME280;21297;52.008;4.576;2023-06-14T09:53:26;52351.25;;;-143.47;34.66
35121;BME280;21297;52.008;4.576;2023-06-14T09:56:29;52386.66;;;-143.47;34.77
35121;BME280;21297;52.008;4.576;2023-06-14T09:59:27;52573.63;;;-143.47;34.50
35121;BME280;21297;52.008;4.576;2023-06-14T10:02:38;52591.34;;;-143.47;33.58
35121;BME280;21297;52.008;4.576;2023-06-14T10:05:25;52504.75;;;-143.47;33.50
35121;BME280;21297;52.008;4.576;2023-06-14T10:08:23;52449.66;;;-143.47;33.44
35121;BME280;21297;52.008;4.576;2023-06-14T10:11:16;52498.84;;;-143.47;32.75
35121;BME280;21297;52.008;4.576;2023-06-14T10:14:05;52546.09;;;-143.47;31.88
35121;BME280;21297;52.008;4.576;2023-06-14T10:17:04;52597.25;;;-143.47;31.68
35121;BME280;21297;52.008;4.576;2023-06-14T10:23:21;52774.41;;;-143.47;32.45
35121;BME280;21297;52.008;4.576;2023-06-14T10:26:08;52890.53;;;-143.47;32.53
35121;BME280;21297;52.008;4.576;2023-06-14T10:29:11;52949.59;;;-143.47;31.34
35121;BME280;21297;52.008;4.576;2023-06-14T10:32:00;52988.97;;;-143.47;30.70
35121;BME280;21297;52.008;4.576;2023-06-14T10:34:54;52809.84;;;-143.47;31.89
35121;BME280;21297;52.008;4.576;2023-06-14T10:37:40;52908.25;;;-143.47;31.83
35121;BME280;21297;52.008;4.576;2023-06-14T10:40:40;53048.00;;;-143.47;31.70
35121;BME280;21297;52.008;4.576;2023-06-14T10:43:26;53016.53;;;-143.47;30.85
35121;BME280;21297;52.008;4.576;2023-06-14T10:46:16;53032.25;;;-143.47;31.23
35121;BME280;21297;52.008;4.576;2023-06-14T10:49:02;52898.41;;;-143.47;31.21
35121;BME280;21297;52.008;4.576;2023-06-14T10:51:50;52892.50;;;-143.47;30.63
35121;BME280;21297;52.008;4.576;2023-06-14T10:54:37;52910.22;;;-143.47;32.26
35121;BME280;21297;52.008;4.576;2023-06-14T10:57:32;53101.16;;;-143.47;31.41
35121;BME280;21297;52.008;4.576;2023-06-14T11:00:27;53028.31;;;-143.47;31.26
35121;BME280;21297;52.008;4.576;2023-06-14T11:06:14;52933.84;;;-143.47;32.00
35121;BME280;21297;52.008;4.576;2023-06-14T11:12:10;52711.41;;;-143.47;29.95
35121;BME280;21297;52.008;4.576;2023-06-14T11:14:57;52973.22;;;-143.47;30.87
35121;BME280;21297;52.008;4.576;2023-06-14T11:17:52;53042.09;;;-143.47;30.50
35121;BME280;21297;52.008;4.576;2023-06-14T11:20:41;53046.03;;;-143.47;30.32
35121;BME280;21297;52.008;4.576;2023-06-14T11:23:27;52752.75;;;-143.47;30.02
35121;BME280;21297;52.008;4.576;2023-06-14T11:26:15;52888.56;;;-143.47;29.87
35121;BME280;21297;52.008;4.576;2023-06-14T11:29:09;53036.19;;;-143.47;29.97
35121;BME280;21297;52.008;4.576;2023-06-14T11:32:06;53144.47;;;-143.47;30.46
35121;BME280;21297;52.008;4.576;2023-06-14T11:34:58;53073.59;;;-143.47;29.55
35121;BME280;21297;52.008;4.576;2023-06-14T11:37:48;53028.31;;;-143.47;29.94
35121;BME280;21297;52.008;4.576;2023-06-14T11:40:37;53148.41;;;-143.47;29.72
35121;BME280;21297;52.008;4.576;2023-06-14T11:43:25;53290.13;;;-143.47;29.85
35121;BME280;21297;52.008;4.576;2023-06-14T11:46:17;53223.22;;;-143.47;29.07
35121;BME280;21297;52.008;4.576;2023-06-14T11:49:07;53357.06;;;-143.47;29.13
35121;BME280;21297;52.008;4.576;2023-06-14T11:51:59;53500.78;;;-143.47;29.57
35121;BME280;21297;52.008;4.576;2023-06-14T11:54:47;53565.75;;;-143.47;29.12
35121;BME280;21297;52.008;4.576;2023-06-14T11:57:36;53469.28;;;-143.47;28.87
35121;BME280;21297;52.008;4.576;2023-06-14T12:00:42;53557.88;;;-143.47;29.39
35121;BME280;21297;52.008;4.576;2023-06-14T12:03:28;53628.75;;;-143.47;29.33
35121;BME280;21297;52.008;4.576;2023-06-14T12:06:14;53248.81;;;-143.47;28.96
35121;BME280;21297;52.008;4.576;2023-06-14T12:09:02;52868.88;;;-143.47;29.82
35121;BME280;21297;52.008;4.576;2023-06-14T12:12:01;53177.94;;;-143.47;29.63
35121;BME280;21297;52.008;4.576;2023-06-14T12:14:49;53280.31;;;-143.47;28.82
35121;BME280;21297;52.008;4.576;2023-06-14T12:17:42;53172.03;;;-143.47;29.14
35121;BME280;21297;52.008;4.576;2023-06-14T12:20:31;53065.72;;;-143.47;29.39
35121;BME280;21297;52.008;4.576;2023-06-14T12:23:17;53193.69;;;-143.47;29.70
35121;BME280;21297;52.008;4.576;2023-06-14T12:26:17;53231.09;;;-143.47;29.81
35121;BME280;21297;52.008;4.576;2023-06-14T12:29:05;53339.34;;;-143.47;29.60
35121;BME280;21297;52.008;4.576;2023-06-14T12:31:53;53191.72;;;-143.47;29.93
35121;BME280;21297;52.008;4.576;2023-06-14T12:34:47;53390.53;;;-143.47;29.16
35121;BME280;21297;52.008;4.576;2023-06-14T12:37:34;53134.63;;;-143.47;29.89
35121;BME280;21297;52.008;4.576;2023-06-14T12:40:20;52979.13;;;-143.47;30.43
35121;BME280;21297;52.008;4.576;2023-06-14T12:43:06;52762.59;;;-143.47;30.26
35121;BME280;21297;52.008;4.576;2023-06-14T12:45:52;52656.31;;;-143.47;30.22
35121;BME280;21297;52.008;4.576;2023-06-14T12:48:41;52933.84;;;-143.47;30.00
35121;BME280;21297;52.008;4.576;2023-06-14T12:51:29;53197.63;;;-143.47;30.16
35121;BME280;21297;52.008;4.576;2023-06-14T12:54:17;53372.81;;;-143.47;29.65
35121;BME280;21297;52.008;4.576;2023-06-14T12:57:11;53506.69;;;-143.47;29.08
35121;BME280;21297;52.008;4.576;2023-06-14T13:00:16;53136.59;;;-143.47;30.29
35121;BME280;21297;52.008;4.576;2023-06-14T13:03:02;52727.16;;;-143.47;30.07
35121;BME280;21297;52.008;4.576;2023-06-14T13:05:53;52878.72;;;-143.47;30.26
35121;BME280;21297;52.008;4.576;2023-06-14T13:08:42;52868.88;;;-143.47;30.27
35121;BME280;21297;52.008;4.576;2023-06-14T13:11:27;52817.72;;;-143.47;30.50
35121;BME280;21297;52.008;4.576;2023-06-14T13:18:00;53451.56;;;-143.47;29.54
35121;BME280;21297;52.008;4.576;2023-06-14T13:21:11;53087.38;;;-143.47;29.06
35121;BME280;21297;52.008;4.576;2023-06-14T13:27:44;53187.78;;;-143.47;29.27
35121;BME280;21297;52.008;4.576;2023-06-14T13:34:59;52896.44;;;-143.47;29.44
35121;BME280;21297;52.008;4.576;2023-06-14T13:38:01;52888.56;;;-143.47;29.74
35121;BME280;21297;52.008;4.576;2023-06-14T13:41:00;52931.88;;;-143.47;29.82
35121;BME280;21297;52.008;4.576;2023-06-14T13:44:13;53105.09;;;-143.47;29.87
35121;BME280;21297;52.008;4.576;2023-06-14T13:47:40;53258.66;;;-143.47;30.11
35121;BME280;21297;52.008;4.576;2023-06-14T13:50:45;53329.50;;;-143.47;29.79
35121;BME280;21297;52.008;4.576;2023-06-14T13:54:30;53485.03;;;-143.47;29.38
35121;BME280;21297;52.008;4.576;2023-06-14T13:57:43;52920.06;;;-143.47;30.52
35121;BME280;21297;52.008;4.576;2023-06-14T14:00:52;53065.72;;;-143.47;30.57
35121;BME280;21297;52.008;4.576;2023-06-14T14:15:23;53174.00;;;-143.47;30.24
35121;BME280;21297;52.008;4.576;2023-06-14T14:31:53;53396.44;;;-143.47;29.89
35121;BME280;21297;52.008;4.576;2023-06-14T14:35:02;53357.06;;;-143.47;29.10
35121;BME280;21297;52.008;4.576;2023-06-14T14:42:16;53467.31;;;-143.47;29.11
35121;BME280;21297;52.008;4.576;2023-06-14T14:45:27;53181.88;;;-143.47;29.36
35121;BME280;21297;52.008;4.576;2023-06-14T14:55:47;53075.56;;;-143.47;30.10
35121;BME280;21297;52.008;4.576;2023-06-14T14:58:36;53065.72;;;-143.47;30.21
35121;BME280;21297;52.008;4.576;2023-06-14T15:09:27;53796.09;;;-143.47;29.25
35121;BME280;21297;52.008;4.576;2023-06-14T15:12:21;54014.66;;;-143.47;29.15
35121;BME280;21297;52.008;4.576;2023-06-14T15:15:34;53272.44;;;-143.47;29.65
35121;BME280;21297;52.008;4.576;2023-06-14T15:18:23;53238.97;;;-143.47;29.94
35121;BME280;21297;52.008;4.576;2023-06-14T15:21:09;53203.53;;;-143.47;30.20
35121;BME280;21297;52.008;4.576;2023-06-14T15:23:59;53034.22;;;-143.47;29.97
35121;BME280;21297;52.008;4.576;2023-06-14T15:27:01;53170.06;;;-143.47;29.57
35121;BME280;21297;52.008;4.576;2023-06-14T15:30:00;53569.69;;;-143.47;29.51
35121;BME280;21297;52.008;4.576;2023-06-14T15:32:48;54012.69;;;-143.47;29.18
35121;BME280;21297;52.008;4.576;2023-06-14T15:35:43;54077.66;;;-143.47;28.68
35121;BME280;21297;52.008;4.576;2023-06-14T15:38:29;53959.53;;;-143.47;28.74
35121;BME280;21297;52.008;4.576;2023-06-14T15:41:15;53573.63;;;-143.47;28.77